Terminal Aerodrome Forecast
Issued by NWS

Home | Current Version | Previous Version | Text Only | Print | Product List | Glossary On
Versions: 1 2 3 4 5 6 7 8 9 10 11 12 13 14 15 16 17 18 19 20 21 22 23
000
FTUS43 KGRR 240500
TAFJXN
TAF
KJXN 240540Z 2406/2506 14011KT 5SM RA BR OVC007
     FM240800 19014KT 1 1/2SM -RA BR OVC006
     FM241600 21021G33KT 5SM -SHRA BR OVC015
     FM242300 22019G29KT P6SM VCSH BKN025=

USA.gov is the U.S. government's official web portal to all federal, state and local government web resources and services.